createdAt,value
2016-05-31T00:00:01.578Z,982.58
2016-05-31T00:01:01.564Z,982.55
2016-05-31T00:02:01.567Z,982.52
2016-05-31T00:03:01.570Z,982.49
2016-05-31T00:04:01.572Z,982.48
2016-05-31T00:05:01.575Z,982.54
2016-05-31T00:06:01.578Z,982.54
2016-05-31T00:07:01.580Z,982.51
2016-05-31T00:08:01.583Z,982.49
2016-05-31T00:09:01.586Z,982.48
2016-05-31T00:10:01.589Z,982.47
2016-05-31T00:11:01.576Z,982.54
2016-05-31T00:12:01.579Z,982.5
2016-05-31T00:13:01.596Z,982.5
2016-05-31T00:14:01.599Z,982.47
2016-05-31T00:15:01.587Z,982.51
2016-05-31T00:16:01.590Z,982.53
2016-05-31T00:17:01.592Z,982.52
2016-05-31T00:18:01.594Z,982.51
2016-05-31T00:19:01.598Z,982.55
2016-05-31T00:20:01.585Z,982.53
2016-05-31T00:21:01.603Z,982.57
2016-05-31T00:22:01.589Z,982.55
2016-05-31T00:23:01.592Z,982.53
2016-05-31T00:24:01.594Z,982.57
2016-05-31T00:25:01.598Z,982.58
2016-05-31T00:26:01.600Z,982.56
2016-05-31T00:27:01.603Z,982.59
2016-05-31T00:28:01.605Z,982.6
2016-05-31T00:29:01.609Z,982.61
2016-05-31T00:30:01.595Z,982.6
2016-05-31T00:31:01.598Z,982.62
2016-05-31T00:32:01.600Z,982.63
2016-05-31T00:33:01.603Z,982.67
2016-05-31T00:34:01.606Z,982.68
2016-05-31T00:35:01.609Z,982.67
2016-05-31T00:36:01.611Z,982.62
2016-05-31T00:37:01.614Z,982.68
2016-05-31T00:38:01.616Z,982.71
2016-05-31T00:39:01.605Z,982.74
2016-05-31T00:40:01.607Z,982.69
2016-05-31T00:41:01.609Z,982.72
2016-05-31T00:42:01.612Z,982.73
2016-05-31T00:43:01.615Z,982.73
2016-05-31T00:44:01.618Z,982.7
2016-05-31T00:45:01.635Z,982.72
2016-05-31T00:46:01.623Z,982.66
2016-05-31T00:47:01.610Z,982.7
2016-05-31T00:48:01.629Z,982.7
2016-05-31T00:49:01.616Z,982.69
2016-05-31T00:50:01.634Z,982.7
2016-05-31T00:51:01.620Z,982.72
2016-05-31T00:52:01.624Z,982.71
2016-05-31T00:53:01.673Z,982.68
2016-05-31T00:54:01.629Z,982.7
2016-05-31T00:55:01.631Z,982.69
2016-05-31T00:56:01.634Z,982.76
2016-05-31T00:57:01.637Z,982.79
2016-05-31T00:58:01.639Z,982.77
2016-05-31T00:59:01.642Z,982.77
2016-05-31T01:00:01.630Z,982.8
2016-05-31T01:01:01.647Z,982.8
2016-05-31T01:02:01.635Z,982.78
2016-05-31T01:03:01.638Z,982.8
2016-05-31T01:04:01.641Z,982.79
2016-05-31T01:05:01.643Z,982.81
2016-05-31T01:06:01.646Z,982.8
2016-05-31T01:07:01.649Z,982.8
2016-05-31T01:08:01.651Z,982.77
2016-05-31T01:09:01.654Z,982.82
2016-05-31T01:10:01.657Z,982.82
2016-05-31T01:11:01.659Z,982.8
2016-05-31T01:12:01.646Z,982.82
2016-05-31T01:13:01.649Z,982.82
2016-05-31T01:14:01.651Z,982.84
2016-05-31T01:15:01.654Z,982.85
2016-05-31T01:16:01.657Z,982.84
2016-05-31T01:17:01.659Z,982.84
2016-05-31T01:18:01.646Z,982.83
2016-05-31T01:19:01.665Z,982.84
2016-05-31T01:20:01.651Z,982.9
2016-05-31T01:21:01.654Z,982.9
2016-05-31T01:22:01.657Z,982.89
2016-05-31T01:23:01.941Z,982.89
2016-05-31T01:24:01.663Z,982.92
2016-05-31T01:25:01.665Z,982.94
2016-05-31T01:26:01.668Z,982.92
2016-05-31T01:27:01.811Z,982.95
2016-05-31T01:28:01.658Z,982.97
2016-05-31T01:29:01.676Z,982.99
2016-05-31T01:30:01.664Z,982.99
2016-05-31T01:31:01.666Z,982.98
2016-05-31T01:32:01.669Z,982.96
2016-05-31T01:33:01.655Z,983.03
2016-05-31T01:34:01.675Z,982.97
2016-05-31T01:35:01.661Z,982.98
2016-05-31T01:36:01.679Z,982.98
2016-05-31T01:37:01.667Z,983.05
2016-05-31T01:38:01.669Z,983.06
2016-05-31T01:39:01.672Z,983.02
2016-05-31T01:40:01.674Z,983.04
2016-05-31T01:41:01.677Z,983.02
2016-05-31T01:42:01.679Z,983.06
2016-05-31T01:43:01.682Z,983.01
2016-05-31T01:44:01.669Z,982.99
2016-05-31T01:45:01.672Z,983.01
2016-05-31T01:46:01.674Z,982.99
2016-05-31T01:47:01.677Z,982.98
2016-05-31T01:48:01.696Z,982.99
2016-05-31T01:49:01.683Z,982.98
2016-05-31T01:50:01.685Z,983
2016-05-31T01:51:01.673Z,982.99
2016-05-31T01:52:01.691Z,982.98
2016-05-31T01:53:01.787Z,982.98
2016-05-31T01:54:01.681Z,982.97
2016-05-31T01:55:01.699Z,982.97
2016-05-31T01:56:01.687Z,983.02
2016-05-31T01:57:01.689Z,983
2016-05-31T01:58:01.692Z,982.98
2016-05-31T01:59:01.694Z,982.99
2016-05-31T02:00:01.697Z,982.98
2016-05-31T02:01:01.700Z,982.98
2016-05-31T02:02:01.687Z,982.99
2016-05-31T02:03:01.689Z,982.98
2016-05-31T02:04:01.692Z,982.92
2016-05-31T02:05:01.694Z,982.94
2016-05-31T02:06:01.714Z,982.93
2016-05-31T02:07:01.700Z,982.92
2016-05-31T02:08:01.702Z,982.9
2016-05-31T02:09:01.690Z,982.92
2016-05-31T02:10:01.693Z,982.93
2016-05-31T02:11:01.711Z,982.93
2016-05-31T02:12:01.714Z,982.91
2016-05-31T02:13:01.701Z,982.94
2016-05-31T02:14:01.704Z,982.98
2016-05-31T02:15:01.707Z,982.97
2016-05-31T02:16:01.709Z,982.98
2016-05-31T02:17:01.696Z,982.96
2016-05-31T02:18:01.699Z,982.96
2016-05-31T02:19:01.702Z,982.98
2016-05-31T02:20:01.720Z,982.98
2016-05-31T02:21:01.707Z,982.95
2016-05-31T02:22:01.709Z,982.99
2016-05-31T02:23:01.712Z,983.02
2016-05-31T02:24:01.731Z,982.99
2016-05-31T02:25:01.702Z,983
2016-05-31T02:26:01.705Z,983.07
2016-05-31T02:27:01.707Z,983.08
2016-05-31T02:28:01.710Z,983.04
2016-05-31T02:29:01.713Z,983.05
2016-05-31T02:30:01.715Z,983.08
2016-05-31T02:31:01.718Z,983.1
2016-05-31T02:32:01.705Z,983.08
2016-05-31T02:33:01.708Z,983.13
2016-05-31T02:34:01.711Z,983.14
2016-05-31T02:35:01.714Z,983.12
2016-05-31T02:36:01.716Z,983.19
2016-05-31T02:37:01.719Z,983.17
2016-05-31T02:38:02.486Z,983.16
2016-05-31T02:39:01.724Z,983.19
2016-05-31T02:40:01.711Z,983.21
2016-05-31T02:41:01.729Z,983.22
2016-05-31T02:42:01.716Z,983.19
2016-05-31T02:43:01.719Z,983.19
2016-05-31T02:44:01.722Z,983.18
2016-05-31T02:45:01.724Z,983.19
2016-05-31T02:46:01.711Z,983.19
2016-05-31T02:47:01.713Z,983.29
2016-05-31T02:48:01.716Z,983.22
2016-05-31T02:49:01.735Z,983.24
2016-05-31T02:50:01.722Z,983.22
2016-05-31T02:51:01.725Z,983.24
2016-05-31T02:52:01.712Z,983.23
2016-05-31T02:53:01.730Z,983.35
2016-05-31T02:54:01.717Z,983.32
2016-05-31T02:55:01.720Z,983.29
2016-05-31T02:56:01.723Z,983.28
2016-05-31T02:57:01.726Z,983.32
2016-05-31T02:58:01.728Z,983.28
2016-05-31T02:59:01.731Z,983.29
2016-05-31T03:00:01.733Z,983.31
2016-05-31T03:01:01.737Z,983.32
2016-05-31T03:02:01.723Z,983.32
2016-05-31T03:03:01.726Z,983.34
2016-05-31T03:04:01.728Z,983.36
2016-05-31T03:05:01.731Z,983.36
2016-05-31T03:06:01.719Z,983.35
2016-05-31T03:07:01.721Z,983.32
2016-05-31T03:08:01.725Z,983.34
2016-05-31T03:09:01.727Z,983.4
2016-05-31T03:10:01.730Z,983.38
2016-05-31T03:11:01.732Z,983.38
2016-05-31T03:12:01.718Z,983.36
2016-05-31T03:13:01.738Z,983.36
2016-05-31T03:14:01.740Z,983.35
2016-05-31T03:15:01.743Z,983.41
2016-05-31T03:16:01.730Z,983.38
2016-05-31T03:17:01.732Z,983.39
2016-05-31T03:18:01.735Z,983.38
2016-05-31T03:19:01.738Z,983.4
2016-05-31T03:20:01.740Z,983.4
2016-05-31T03:21:01.727Z,983.41
2016-05-31T03:22:01.730Z,983.43
2016-05-31T03:23:01.733Z,983.4
2016-05-31T03:24:01.735Z,983.38
2016-05-31T03:25:01.723Z,983.39
2016-05-31T03:26:01.726Z,983.38
2016-05-31T03:27:01.743Z,983.39
2016-05-31T03:28:01.730Z,983.42
2016-05-31T03:29:01.734Z,983.4
2016-05-31T03:30:01.736Z,983.35
2016-05-31T03:31:01.739Z,983.34
2016-05-31T03:32:01.742Z,983.38
2016-05-31T03:33:01.744Z,983.37
2016-05-31T03:34:01.731Z,983.36
2016-05-31T03:35:01.734Z,983.36
2016-05-31T03:36:01.737Z,983.36
2016-05-31T03:37:01.739Z,983.38
2016-05-31T03:38:01.805Z,983.38
2016-05-31T03:39:01.745Z,983.4
2016-05-31T03:40:01.731Z,983.4
2016-05-31T03:41:01.750Z,983.39
2016-05-31T03:42:01.736Z,983.41
2016-05-31T03:43:01.739Z,983.41
2016-05-31T03:44:01.742Z,983.4
2016-05-31T03:45:01.744Z,983.41
2016-05-31T03:46:01.748Z,983.4
2016-05-31T03:47:01.735Z,983.4
2016-05-31T03:48:01.737Z,983.41
2016-05-31T03:49:01.741Z,983.44
2016-05-31T03:50:01.743Z,983.48
2016-05-31T03:51:01.729Z,983.47
2016-05-31T03:52:01.733Z,983.48
2016-05-31T03:53:01.735Z,983.48
2016-05-31T03:54:01.738Z,983.47
2016-05-31T03:55:01.741Z,983.47
2016-05-31T03:56:01.728Z,983.49
2016-05-31T03:57:01.731Z,983.6
2016-05-31T03:58:01.734Z,983.68
2016-05-31T03:59:01.736Z,983.72
2016-05-31T04:00:01.739Z,983.72
2016-05-31T04:01:01.725Z,983.7
2016-05-31T04:02:01.729Z,983.65
2016-05-31T04:03:01.747Z,983.65
2016-05-31T04:04:01.733Z,983.62
2016-05-31T04:05:01.737Z,983.48
2016-05-31T04:06:01.739Z,983.61
2016-05-31T04:07:01.741Z,983.74
2016-05-31T04:08:01.744Z,983.78
2016-05-31T04:09:01.732Z,983.76
2016-05-31T04:10:01.734Z,983.77
2016-05-31T04:11:01.736Z,983.81
2016-05-31T04:12:01.740Z,983.84
2016-05-31T04:13:01.742Z,983.71
2016-05-31T04:14:01.760Z,983.7
2016-05-31T04:15:01.763Z,983.78
2016-05-31T04:16:01.766Z,983.58
2016-05-31T04:17:01.769Z,983.48
2016-05-31T04:18:01.755Z,983.56
2016-05-31T04:19:01.758Z,983.63
2016-05-31T04:20:01.761Z,983.58
2016-05-31T04:21:01.763Z,983.68
2016-05-31T04:22:01.766Z,983.67
2016-05-31T04:23:01.801Z,983.72
2016-05-31T04:24:01.772Z,983.8
2016-05-31T04:25:01.774Z,983.78
2016-05-31T04:26:01.777Z,983.72
2016-05-31T04:27:01.780Z,983.74
2016-05-31T04:28:01.782Z,983.77
2016-05-31T04:29:01.784Z,983.76
2016-05-31T04:30:01.787Z,983.75
2016-05-31T04:31:01.791Z,983.74
2016-05-31T04:32:01.793Z,983.71
2016-05-31T04:33:01.811Z,983.65
2016-05-31T04:34:01.799Z,983.65
2016-05-31T04:35:01.817Z,983.68
2016-05-31T04:36:01.819Z,983.67
2016-05-31T04:37:01.823Z,983.62
2016-05-31T04:38:01.841Z,983.7
2016-05-31T04:39:01.828Z,983.68
2016-05-31T04:40:01.830Z,983.58
2016-05-31T04:41:01.834Z,983.57
2016-05-31T04:42:01.852Z,983.51
2016-05-31T04:43:01.854Z,983.5
2016-05-31T04:44:01.857Z,983.78
2016-05-31T04:45:01.860Z,983.55
2016-05-31T04:46:01.863Z,983.56
2016-05-31T04:47:01.865Z,983.69
2016-05-31T04:48:01.868Z,983.66
2016-05-31T04:49:01.886Z,983.61
2016-05-31T04:50:01.873Z,983.68
2016-05-31T04:51:01.876Z,983.7
2016-05-31T04:52:01.894Z,983.74
2016-05-31T04:53:01.897Z,983.68
2016-05-31T04:54:01.899Z,983.68
2016-05-31T04:55:01.902Z,983.69
2016-05-31T04:56:01.920Z,983.65
2016-05-31T04:57:01.923Z,983.66
2016-05-31T04:58:01.910Z,983.7
2016-05-31T04:59:01.928Z,983.68
2016-05-31T05:00:01.932Z,983.7
2016-05-31T05:01:01.949Z,983.74
2016-05-31T05:02:01.936Z,983.68
2016-05-31T05:03:01.955Z,983.66
2016-05-31T05:04:01.957Z,983.66
2016-05-31T05:05:01.960Z,983.65
2016-05-31T05:06:01.962Z,983.68
2016-05-31T05:07:01.982Z,983.69
2016-05-31T05:08:02.093Z,983.71
2016-05-31T05:09:01.986Z,983.7
2016-05-31T05:10:02.005Z,983.73
2016-05-31T05:11:02.007Z,983.76
2016-05-31T05:12:02.011Z,983.76
2016-05-31T05:13:02.028Z,983.82
2016-05-31T05:14:02.031Z,983.77
2016-05-31T05:15:02.034Z,983.79
2016-05-31T05:16:02.052Z,983.84
2016-05-31T05:17:02.055Z,983.8
2016-05-31T05:18:02.057Z,983.81
2016-05-31T05:19:02.061Z,983.8
2016-05-31T05:20:02.079Z,983.56
2016-05-31T05:21:02.082Z,983.57
2016-05-31T05:22:02.084Z,983.59
2016-05-31T05:23:02.102Z,983.6
2016-05-31T05:24:02.105Z,983.57
2016-05-31T05:25:02.107Z,983.61
2016-05-31T05:26:02.110Z,983.59
2016-05-31T05:27:02.144Z,983.65
2016-05-31T05:28:02.132Z,983.59
2016-05-31T05:29:02.149Z,983.66
2016-05-31T05:30:02.152Z,983.69
2016-05-31T05:31:02.155Z,983.72
2016-05-31T05:32:02.173Z,983.69
2016-05-31T05:33:02.160Z,983.73
2016-05-31T05:34:02.163Z,983.74
2016-05-31T05:35:02.166Z,983.74
2016-05-31T05:36:02.168Z,983.73
2016-05-31T05:37:02.187Z,983.71
2016-05-31T05:38:02.923Z,983.81
2016-05-31T05:39:02.192Z,983.8
2016-05-31T05:40:02.195Z,983.81
2016-05-31T05:41:02.213Z,983.8
2016-05-31T05:42:02.217Z,983.83
2016-05-31T05:43:02.219Z,983.82
2016-05-31T05:44:02.222Z,983.82
2016-05-31T05:45:02.224Z,983.87
2016-05-31T05:46:02.227Z,983.86
2016-05-31T05:47:02.230Z,983.85
2016-05-31T05:48:02.232Z,983.88
2016-05-31T05:49:02.235Z,983.86
2016-05-31T05:50:02.237Z,983.85
2016-05-31T05:51:02.241Z,983.87
2016-05-31T05:52:02.243Z,983.87
2016-05-31T05:53:02.245Z,983.9
2016-05-31T05:54:02.249Z,983.92
2016-05-31T05:55:02.251Z,983.95
2016-05-31T05:56:02.254Z,983.98
2016-05-31T05:57:02.280Z,983.99
2016-05-31T05:58:02.310Z,984.05
2016-05-31T05:59:02.324Z,984.03
2016-05-31T06:00:02.353Z,984.02
2016-05-31T06:01:02.382Z,984.02
2016-05-31T06:02:02.406Z,984.02
2016-05-31T06:03:02.433Z,984.05
2016-05-31T06:04:02.430Z,984.07
2016-05-31T06:05:02.458Z,984.07
2016-05-31T06:06:02.470Z,984.11
2016-05-31T06:07:02.480Z,984.07
2016-05-31T06:08:02.861Z,984.13
2016-05-31T06:09:02.493Z,984.05
2016-05-31T06:10:02.515Z,984.06
2016-05-31T06:11:02.521Z,984.07
2016-05-31T06:12:02.542Z,984.07
2016-05-31T06:13:02.545Z,984.06
2016-05-31T06:14:02.565Z,984.05
2016-05-31T06:15:02.554Z,984.02
2016-05-31T06:16:02.557Z,984.03
2016-05-31T06:17:02.576Z,984.05
2016-05-31T06:18:02.579Z,984.07
2016-05-31T06:19:02.598Z,984.1
2016-05-31T06:20:02.601Z,984.06
2016-05-31T06:21:02.604Z,984.07
2016-05-31T06:22:02.623Z,984.04
2016-05-31T06:23:02.969Z,984.09
2016-05-31T06:24:02.643Z,984.03
2016-05-31T06:25:02.663Z,984.05
2016-05-31T06:26:02.649Z,984.05
2016-05-31T06:27:02.668Z,984.08
2016-05-31T06:28:02.685Z,984.07
2016-05-31T06:29:02.688Z,984.13
2016-05-31T06:30:02.691Z,984.13
2016-05-31T06:31:02.709Z,984.1
2016-05-31T06:32:02.712Z,984.13
2016-05-31T06:33:02.714Z,984.03
2016-05-31T06:34:02.734Z,983.99
2016-05-31T06:35:02.767Z,984.05
2016-05-31T06:36:02.754Z,984.07
2016-05-31T06:37:02.756Z,984.1
2016-05-31T06:38:02.760Z,984.1
2016-05-31T06:39:02.778Z,984.1
2016-05-31T06:40:02.795Z,984.14
2016-05-31T06:41:02.814Z,984.16
2016-05-31T06:42:02.817Z,984.16
2016-05-31T06:43:02.820Z,984.2
2016-05-31T06:44:02.869Z,984.23
2016-05-31T06:45:02.825Z,984.21
2016-05-31T06:46:02.843Z,984.21
2016-05-31T06:47:02.862Z,984.27
2016-05-31T06:48:02.864Z,984.24
2016-05-31T06:49:02.883Z,984.26
2016-05-31T06:50:02.886Z,984.26
2016-05-31T06:51:02.888Z,984.29
2016-05-31T06:52:02.907Z,984.33
2016-05-31T06:53:02.924Z,984.31
2016-05-31T06:54:02.912Z,984.32
2016-05-31T06:55:02.930Z,984.41
2016-05-31T06:56:02.933Z,984.32
2016-05-31T06:57:02.966Z,984.36
2016-05-31T06:58:02.969Z,984.34
2016-05-31T06:59:02.972Z,984.34
2016-05-31T07:00:02.975Z,984.34
2016-05-31T07:01:02.993Z,984.31
2016-05-31T07:02:03.012Z,984.25
2016-05-31T07:03:03.014Z,984.42
2016-05-31T07:04:03.032Z,984.45
2016-05-31T07:05:03.020Z,984.43
2016-05-31T07:06:03.037Z,984.43
2016-05-31T07:07:03.040Z,984.4
2016-05-31T07:08:03.075Z,984.35
2016-05-31T07:09:03.062Z,984.45
2016-05-31T07:10:03.064Z,984.33
2016-05-31T07:11:03.083Z,984.45
2016-05-31T07:12:03.085Z,984.41
2016-05-31T07:13:03.104Z,984.39
2016-05-31T07:14:03.106Z,984.44
2016-05-31T07:15:03.125Z,984.48
2016-05-31T07:16:03.142Z,984.48
2016-05-31T07:17:03.130Z,984.57
2016-05-31T07:18:03.132Z,984.58
2016-05-31T07:19:03.151Z,984.63
2016-05-31T07:20:03.153Z,984.46
2016-05-31T07:21:03.172Z,984.6
2016-05-31T07:22:03.174Z,984.59
2016-05-31T07:23:03.194Z,984.53
2016-05-31T07:24:03.196Z,984.54
2016-05-31T07:25:03.213Z,984.58
2016-05-31T07:26:03.216Z,984.59
2016-05-31T07:27:03.235Z,984.56
2016-05-31T07:28:03.238Z,984.62
2016-05-31T07:29:03.240Z,984.64
2016-05-31T07:30:03.274Z,984.68
2016-05-31T07:31:03.277Z,984.65
2016-05-31T07:32:03.280Z,984.65
2016-05-31T07:33:03.282Z,984.66
2016-05-31T07:34:03.301Z,984.52
2016-05-31T07:35:03.303Z,984.51
2016-05-31T07:36:03.306Z,984.7
2016-05-31T07:37:03.324Z,984.75
2016-05-31T07:38:03.327Z,984.78
2016-05-31T07:39:03.329Z,984.71
2016-05-31T07:40:03.348Z,984.78
2016-05-31T07:41:03.351Z,984.65
2016-05-31T07:42:03.369Z,984.62
2016-05-31T07:43:03.372Z,984.77
2016-05-31T07:44:03.374Z,984.77
2016-05-31T07:45:03.393Z,984.78
2016-05-31T07:46:03.396Z,984.77
2016-05-31T07:47:03.414Z,984.81
2016-05-31T07:48:03.416Z,984.78
2016-05-31T07:49:03.435Z,984.78
2016-05-31T07:50:03.438Z,984.76
2016-05-31T07:51:03.441Z,984.88
2016-05-31T07:52:03.458Z,984.77
2016-05-31T07:53:03.461Z,984.79
2016-05-31T07:54:03.463Z,984.76
2016-05-31T07:55:03.467Z,984.81
2016-05-31T07:56:03.485Z,984.75
2016-05-31T07:57:03.488Z,984.88
2016-05-31T07:58:03.505Z,984.69
2016-05-31T07:59:03.508Z,984.76
2016-05-31T08:00:03.511Z,984.76
2016-05-31T08:01:03.514Z,984.75
2016-05-31T08:02:03.516Z,984.76
2016-05-31T08:03:03.534Z,984.68
2016-05-31T08:04:03.538Z,984.52
2016-05-31T08:05:03.541Z,984.59
2016-05-31T08:06:03.559Z,984.56
2016-05-31T08:07:03.561Z,984.61
2016-05-31T08:08:03.626Z,984.71
2016-05-31T08:09:03.581Z,984.73
2016-05-31T08:10:03.585Z,984.67
2016-05-31T08:11:03.588Z,984.7
2016-05-31T08:12:03.590Z,984.78
2016-05-31T08:13:03.608Z,984.8
2016-05-31T08:14:03.612Z,984.74
2016-05-31T08:15:03.630Z,984.81
2016-05-31T08:16:03.633Z,984.88
2016-05-31T08:17:03.650Z,984.91
2016-05-31T08:18:03.653Z,984.94
2016-05-31T08:19:03.655Z,984.86
2016-05-31T08:20:03.658Z,984.91
2016-05-31T08:21:03.677Z,984.92
2016-05-31T08:22:03.680Z,985
2016-05-31T08:23:03.682Z,984.89
2016-05-31T08:24:03.700Z,984.78
2016-05-31T08:25:03.703Z,984.77
2016-05-31T08:26:03.722Z,984.72
2016-05-31T08:27:03.740Z,984.69
2016-05-31T08:28:03.743Z,984.8
2016-05-31T08:29:03.745Z,984.7
2016-05-31T08:30:03.749Z,984.66
2016-05-31T08:31:03.751Z,984.74
2016-05-31T08:32:03.769Z,984.69
2016-05-31T08:33:03.787Z,984.63
2016-05-31T08:34:03.790Z,984.7
2016-05-31T08:35:03.793Z,984.69
2016-05-31T08:36:03.811Z,984.71
2016-05-31T08:37:03.815Z,984.71
2016-05-31T08:38:03.817Z,984.69
2016-05-31T08:39:03.835Z,984.63
2016-05-31T08:40:03.837Z,984.61
2016-05-31T08:41:03.840Z,984.66
2016-05-31T08:42:03.843Z,984.65
2016-05-31T08:43:03.845Z,984.74
2016-05-31T08:44:03.864Z,984.7
2016-05-31T08:45:03.867Z,984.6
2016-05-31T08:46:03.884Z,984.65
2016-05-31T08:47:03.887Z,984.75
2016-05-31T08:48:03.890Z,984.71
2016-05-31T08:49:03.925Z,984.69
2016-05-31T08:50:03.911Z,984.7
2016-05-31T08:51:03.914Z,984.63
2016-05-31T08:52:03.916Z,984.66
2016-05-31T08:53:03.935Z,984.66
2016-05-31T08:54:03.938Z,984.76
2016-05-31T08:55:03.941Z,984.81
2016-05-31T08:56:03.974Z,984.81
2016-05-31T08:57:03.977Z,984.82
2016-05-31T08:58:03.996Z,984.77
2016-05-31T08:59:03.982Z,984.9
2016-05-31T09:00:04.001Z,984.97
2016-05-31T09:01:04.004Z,984.98
2016-05-31T09:02:04.006Z,984.88
2016-05-31T09:03:04.040Z,984.9
2016-05-31T09:04:04.027Z,984.79
2016-05-31T09:05:04.060Z,984.69
2016-05-31T09:06:04.063Z,984.72
2016-05-31T09:07:04.051Z,984.84
2016-05-31T09:08:04.085Z,984.8
2016-05-31T09:09:04.071Z,984.88
2016-05-31T09:10:04.074Z,984.9
2016-05-31T09:11:04.092Z,984.95
2016-05-31T09:12:04.095Z,984.98
2016-05-31T09:13:04.114Z,984.92
2016-05-31T09:14:04.101Z,984.96
2016-05-31T09:15:04.119Z,984.96
2016-05-31T09:16:04.122Z,985
2016-05-31T09:17:04.139Z,985.1
2016-05-31T09:18:04.143Z,985.07
2016-05-31T09:19:04.145Z,984.94
2016-05-31T09:20:04.148Z,984.94
2016-05-31T09:21:04.182Z,984.95
2016-05-31T09:22:04.170Z,984.91
2016-05-31T09:23:04.202Z,985.03
2016-05-31T09:24:04.175Z,985.01
2016-05-31T09:25:04.193Z,984.93
2016-05-31T09:26:04.196Z,985.02
2016-05-31T09:27:04.198Z,984.91
2016-05-31T09:28:04.217Z,984.88
2016-05-31T09:29:04.219Z,984.83
2016-05-31T09:30:04.222Z,984.89
2016-05-31T09:31:04.224Z,984.88
2016-05-31T09:32:04.244Z,984.84
2016-05-31T09:33:04.245Z,984.8
2016-05-31T09:34:04.249Z,984.82
2016-05-31T09:35:04.266Z,984.86
2016-05-31T09:36:04.268Z,984.84
2016-05-31T09:37:04.272Z,984.88
2016-05-31T09:38:04.275Z,984.91
2016-05-31T09:39:04.293Z,985.02
2016-05-31T09:40:04.296Z,984.98
2016-05-31T09:41:04.298Z,984.97
2016-05-31T09:42:04.317Z,985.12
2016-05-31T09:43:04.303Z,985.19
2016-05-31T09:44:04.322Z,984.97
2016-05-31T09:45:04.325Z,985.03
2016-05-31T09:46:04.343Z,985.04
2016-05-31T09:47:04.345Z,985.01
2016-05-31T09:48:04.348Z,984.95
2016-05-31T09:49:04.351Z,984.95
2016-05-31T09:50:04.354Z,984.93
2016-05-31T09:51:04.372Z,984.93
2016-05-31T09:52:04.375Z,984.96
2016-05-31T09:53:04.377Z,984.98
2016-05-31T09:54:04.380Z,984.99
2016-05-31T09:55:04.399Z,985.05
2016-05-31T09:56:04.417Z,985.07
2016-05-31T09:57:04.404Z,985.1
2016-05-31T09:58:04.407Z,985.1
2016-05-31T09:59:04.424Z,985.11
2016-05-31T10:00:04.428Z,985.12
2016-05-31T10:01:04.430Z,985.25
2016-05-31T10:02:04.433Z,985.29
2016-05-31T10:03:04.451Z,985.2
2016-05-31T10:04:04.454Z,985.32
2016-05-31T10:05:04.456Z,985.34
2016-05-31T10:06:04.460Z,985.36
2016-05-31T10:07:04.477Z,985.37
2016-05-31T10:08:04.480Z,985.39
2016-05-31T10:09:04.482Z,985.34
2016-05-31T10:10:04.486Z,985.34
2016-05-31T10:11:04.504Z,985.35
2016-05-31T10:12:04.523Z,985.34
2016-05-31T10:13:04.509Z,985.32
2016-05-31T10:14:04.512Z,985.34
2016-05-31T10:15:04.530Z,985.32
2016-05-31T10:16:04.534Z,985.29
2016-05-31T10:17:04.536Z,985.31
2016-05-31T10:18:04.539Z,985.29
2016-05-31T10:19:04.541Z,985.36
2016-05-31T10:20:04.560Z,985.38
2016-05-31T10:21:04.562Z,985.45
2016-05-31T10:22:04.580Z,985.33
2016-05-31T10:23:04.568Z,985.33
2016-05-31T10:24:04.570Z,985.36
2016-05-31T10:25:04.588Z,985.4
2016-05-31T10:26:04.591Z,985.42
2016-05-31T10:27:04.610Z,985.37
2016-05-31T10:28:04.597Z,985.37
2016-05-31T10:29:04.599Z,985.35
2016-05-31T10:30:04.618Z,985.39
2016-05-31T10:31:04.621Z,985.38
2016-05-31T10:32:04.638Z,985.43
2016-05-31T10:33:04.641Z,985.44
2016-05-31T10:34:04.644Z,985.42
2016-05-31T10:35:04.646Z,985.52
2016-05-31T10:36:04.665Z,985.56
2016-05-31T10:37:04.652Z,985.56
2016-05-31T10:38:04.655Z,985.61
2016-05-31T10:39:04.673Z,985.63
2016-05-31T10:40:04.691Z,985.69
2016-05-31T10:41:04.679Z,985.61
2016-05-31T10:42:04.696Z,985.5
2016-05-31T10:43:04.699Z,985.45
2016-05-31T10:44:04.718Z,985.43
2016-05-31T10:45:04.720Z,985.41
2016-05-31T10:46:04.704Z,985.42
2016-05-31T10:47:04.707Z,985.4
2016-05-31T10:48:04.726Z,985.32
2016-05-31T10:49:04.744Z,985.35
2016-05-31T10:50:04.732Z,985.28
2016-05-31T10:51:04.750Z,985.23
2016-05-31T10:52:04.753Z,985.26
2016-05-31T10:53:04.786Z,985.23
2016-05-31T10:54:04.804Z,985.24
2016-05-31T10:55:04.776Z,985.22
2016-05-31T10:56:04.778Z,985.22
2016-05-31T10:57:04.781Z,985.21
2016-05-31T10:58:04.784Z,985.19
2016-05-31T10:59:04.802Z,985.18
2016-05-31T11:00:04.805Z,985.2
2016-05-31T11:01:04.808Z,985.24
2016-05-31T11:02:04.826Z,985.14
2016-05-31T11:03:04.829Z,985.16
2016-05-31T11:04:04.832Z,985.18
2016-05-31T11:05:04.834Z,985.28
2016-05-31T11:06:04.837Z,985.23
2016-05-31T11:07:04.855Z,985.25
2016-05-31T11:08:04.857Z,985.25
2016-05-31T11:09:04.861Z,985.25
2016-05-31T11:10:04.879Z,985.25
2016-05-31T11:11:04.881Z,985.25
2016-05-31T11:12:04.884Z,985.29
2016-05-31T11:13:04.902Z,985.3
2016-05-31T11:14:04.904Z,985.33
2016-05-31T11:15:04.908Z,985.24
2016-05-31T11:16:04.910Z,985.17
2016-05-31T11:17:04.929Z,985.16
2016-05-31T11:18:04.932Z,985.14
2016-05-31T11:19:04.934Z,985.12
2016-05-31T11:20:04.937Z,985.07
2016-05-31T11:21:04.955Z,985.07
2016-05-31T11:22:04.942Z,985.05
2016-05-31T11:23:05.461Z,985.09
2016-05-31T11:24:04.964Z,985.06
2016-05-31T11:25:04.966Z,985.12
2016-05-31T11:26:04.984Z,985.2
2016-05-31T11:27:04.987Z,985.14
2016-05-31T11:28:05.005Z,985.11
2016-05-31T11:29:05.008Z,985.04
2016-05-31T11:30:05.011Z,985.05
2016-05-31T11:31:05.013Z,985.07
2016-05-31T11:32:05.016Z,985.12
2016-05-31T11:33:05.018Z,985.13
2016-05-31T11:34:05.038Z,985.12
2016-05-31T11:35:05.055Z,985.15
2016-05-31T11:36:05.043Z,985.19
2016-05-31T11:37:05.045Z,985.26
2016-05-31T11:38:05.063Z,985.35
2016-05-31T11:39:05.065Z,985.35
2016-05-31T11:40:05.068Z,985.23
2016-05-31T11:41:05.072Z,985.22
2016-05-31T11:42:05.090Z,985.12
2016-05-31T11:43:05.092Z,985.13
2016-05-31T11:44:05.096Z,985.17
2016-05-31T11:45:05.098Z,985.06
2016-05-31T11:46:05.116Z,985.07
2016-05-31T11:47:05.119Z,985.07
2016-05-31T11:48:05.121Z,985.08
2016-05-31T11:49:05.123Z,985.15
2016-05-31T11:50:05.142Z,985.12
2016-05-31T11:51:05.145Z,985.08
2016-05-31T11:52:05.164Z,985.08
2016-05-31T11:53:05.354Z,985.08
2016-05-31T11:54:05.169Z,985.08
2016-05-31T11:55:05.172Z,985.11
2016-05-31T11:56:05.189Z,984.98
2016-05-31T11:57:05.224Z,985.03
2016-05-31T11:58:05.195Z,984.95
2016-05-31T11:59:05.230Z,984.88
2016-05-31T12:00:05.216Z,984.85
2016-05-31T12:01:05.219Z,984.99
2016-05-31T12:02:05.237Z,984.96
2016-05-31T12:03:05.240Z,984.95
2016-05-31T12:04:05.244Z,985
2016-05-31T12:05:05.246Z,985.05
2016-05-31T12:06:05.264Z,985.06
2016-05-31T12:07:05.688Z,984.97
2016-05-31T12:08:05.268Z,984.98
2016-05-31T12:09:05.413Z,985
2016-05-31T12:10:05.291Z,985.06
2016-05-31T12:11:05.308Z,985.15
2016-05-31T12:12:05.296Z,985.12
2016-05-31T12:13:05.313Z,985.1
2016-05-31T12:14:05.316Z,985.08
2016-05-31T12:15:05.319Z,985.07
2016-05-31T12:16:05.321Z,985.03
2016-05-31T12:17:05.324Z,985.03
2016-05-31T12:18:05.343Z,985.08
2016-05-31T12:19:05.345Z,985.12
2016-05-31T12:20:05.348Z,985.13
2016-05-31T12:21:05.367Z,985.17
2016-05-31T12:22:05.354Z,985.11
2016-05-31T12:23:05.388Z,985.16
2016-05-31T12:24:05.375Z,985.16
2016-05-31T12:25:05.377Z,985.15
2016-05-31T12:26:05.380Z,985.11
2016-05-31T12:27:05.398Z,985.09
2016-05-31T12:28:05.401Z,985.15
2016-05-31T12:29:05.403Z,985.04
2016-05-31T12:30:05.406Z,984.96
2016-05-31T12:31:05.425Z,985.03